Aérodrome :
LOGIN :

S'inscrire | Disclaimer

   EN    FR    IT 

 










Légende :    VFR   VFR Marginal   IFR   IFR Intensif   IFR Très Intensif
Visi : 
Plafond : 
>= 8 km
>= 3000ft
5 à 8 km
1000 à 3000 ft
1500m à 5 km
500 à 1000 ft
800 à 1500m
200 à 500 ft
< 800m
< 200 ft
Symboles :   Orages  Brouillard  Fortes neiges  Fortes précipitations  Vent > 20 kt
SIGMETs :   Divers  Orages  Givrage  Turbulence  Onde Orograph.  Cendres Volcan.







- Altitude de l'aérodrome : 404 ft
- Code IATA : WRO


EPWR - Wroclaw

DERNIER METAR :
  • 211730Z 04004KT CAVOK 16/M00 Q1019

METARs EXPIRÉS :
  • 211700Z 04005KT CAVOK 18/00 Q1020
  • 211630Z 36005KT 330V030 CAVOK 18/01 Q1020
  • 211600Z VRB02KT CAVOK 19/02 Q1020
  • 211530Z 35007KT 320V030 CAVOK 19/02 Q1020
  • 211500Z 35003KT 270V050 CAVOK 19/00 Q1021

TAF TAF EPWR
Valide du 21 à 18h jusqu'au 22 à 18h UTC


211730Z 2118/2218 VRB02KT CAVOK
TEMPO 2118/2124 36010KT
BECMG 2205/2208 09012KT
PROB30
TEMPO 2212/2218 10015G25KT SCT040CB
Pas de NOTAMs connus pour ce terrain.



MET'MAP, la Météo Aéronautique d'un coup d'oeil ! - Copyright ORBIFLY Décembre 2007 - Disclaimer

ORBIFLY MET'MAP TEAM :

Programmation & Développement : Alexandra Zaïnal
Conception & Développement : Baudouin d'Aumeries
Co-Programmation & Développement : Marc-Olivier Méhu
Soutien technique & logistique : Manuel Goepfert

Contact : metmap@orbifly.com




SOURCES & CREDITS :

   NOAA